Hite, Utah
Current Conditions -  °F | °C
As of 9:15 AM on Thursday 27 Nov 2014 (Local Time) from KBDG Reporting Station
Clear Clear  
Wind Chill: 40°   Ceiling: Unl
Heat Index: 40°   Visibility: 10mi
Dew Point: 23°   Wind: 0mph
Humidity: 49%   Direction: NA
Pressure: 30.56"   Gusts: NA
Location:  37.6208°N, 109.479°W
Report Text: KBDG 271615Z AUTO 00000KT 10SM CLR 05/M05 A3056 RMK AO1 T00471051
Loading
Personal Weather Stations






























Interactive Weather Map New forecast layout! Learn more

10-Day Weather Forecast

Advertisements
Track Severe Weather on mobile